createdAt,value
2019-04-10T06:14:56.966Z,11.05
2019-04-10T06:17:26.929Z,11.06
2019-04-10T06:19:56.749Z,11.12
2019-04-10T06:22:26.546Z,11.15
2019-04-10T06:24:56.542Z,11.19
2019-04-10T06:27:26.458Z,11.25
2019-04-10T06:29:56.216Z,11.27
2019-04-10T06:32:25.813Z,11.29
2019-04-10T06:34:55.349Z,11.37
2019-04-10T06:37:26.166Z,11.41
2019-04-10T06:40:07.657Z,11.44
2019-04-10T06:42:27.390Z,11.47
2019-04-10T06:44:57.263Z,11.54
2019-04-10T06:47:27.097Z,11.58
2019-04-10T06:49:57.012Z,11.64
2019-04-10T06:52:27.031Z,11.68
2019-04-10T06:54:57.367Z,11.75
2019-04-10T06:57:27.021Z,11.79
2019-04-10T06:59:59.351Z,11.83
2019-04-10T07:02:30.913Z,11.88
2019-04-10T07:05:05.744Z,11.89
2019-04-10T07:07:45.209Z,11.93
2019-04-10T07:10:02.432Z,11.94
2019-04-10T07:12:34.046Z,11.95
2019-04-10T07:15:04.253Z,11.95
2019-04-10T07:17:37.401Z,11.99
2019-04-10T07:20:07.474Z,12.06
2019-04-10T07:22:37.255Z,12.04
2019-04-10T07:25:09.275Z,12.02
2019-04-10T07:27:40.068Z,12.08
2019-04-10T07:30:10.201Z,12.10
2019-04-10T07:32:44.204Z,12.08
2019-04-10T07:35:14.337Z,12.13
2019-04-10T07:37:44.448Z,12.16
2019-04-10T07:40:14.982Z,12.14
2019-04-10T07:42:44.722Z,12.11
2019-04-10T07:45:14.685Z,12.07
2019-04-10T07:47:44.185Z,12.05
2019-04-10T07:50:14.331Z,12.04
2019-04-10T07:52:43.942Z,12.08
2019-04-10T07:55:14.838Z,12.10
2019-04-10T07:57:47.716Z,12.12
2019-04-10T08:00:16.463Z,12.15
2019-04-10T08:02:46.849Z,12.19
2019-04-10T08:05:16.702Z,12.28
2019-04-10T08:07:47.259Z,12.29
2019-04-10T08:10:17.977Z,12.38
2019-04-10T08:12:53.064Z,12.44
2019-04-10T08:15:19.318Z,12.43
2019-04-10T08:17:50.884Z,12.45
2019-04-10T08:20:20.103Z,12.43
2019-04-10T08:22:51.124Z,12.40
2019-04-10T08:25:20.913Z,12.34
2019-04-10T08:27:50.328Z,12.26
2019-04-10T08:30:20.196Z,12.17
2019-04-10T08:32:57.283Z,12.13
2019-04-10T08:35:20.974Z,12.18
2019-04-10T08:37:50.728Z,12.15
2019-04-10T08:40:21.166Z,12.13
2019-04-10T08:42:51.322Z,12.13
2019-04-10T08:45:21.184Z,12.14
2019-04-10T08:47:50.805Z,12.20
2019-04-10T08:50:21.741Z,12.23
2019-04-10T08:52:51.301Z,12.28
2019-04-10T08:55:21.821Z,12.38
2019-04-10T08:57:52.386Z,12.42
2019-04-10T09:00:22.706Z,12.49
2019-04-10T09:02:52.697Z,12.53
2019-04-10T09:05:22.237Z,12.58
2019-04-10T09:07:52.717Z,12.58
2019-04-10T09:10:22.670Z,12.56
2019-04-10T09:12:54.430Z,12.58
2019-04-10T09:15:23.613Z,12.64
2019-04-10T09:17:52.966Z,12.70
2019-04-10T09:20:22.678Z,12.77
2019-04-10T09:23:14.680Z,12.79
2019-04-10T09:25:24.833Z,12.82
2019-04-10T09:27:54.508Z,12.88
2019-04-10T09:30:24.760Z,12.96
2019-04-10T09:32:54.916Z,13.01
2019-04-10T09:35:24.713Z,13.07
2019-04-10T09:37:54.617Z,13.14
2019-04-10T09:40:24.487Z,13.16
2019-04-10T09:42:54.179Z,13.24
2019-04-10T09:45:25.130Z,13.28
2019-04-10T09:47:55.774Z,13.31
2019-04-10T09:50:26.233Z,13.33
2019-04-10T09:52:56.576Z,13.34
2019-04-10T09:55:26.099Z,13.39
2019-04-10T09:57:55.598Z,13.43
2019-04-10T10:00:27.821Z,13.46
2019-04-10T10:02:57.457Z,13.52
2019-04-10T10:05:26.994Z,13.58
2019-04-10T10:07:57.937Z,13.69
2019-04-10T10:10:27.776Z,13.77
2019-04-10T10:12:59.098Z,13.91
2019-04-10T10:15:29.339Z,13.99
2019-04-10T10:17:59.232Z,14.03
2019-04-10T10:20:29.635Z,14.06
2019-04-10T10:23:01.223Z,14.08
2019-04-10T10:25:31.246Z,14.10
2019-04-10T10:28:00.934Z,14.07
2019-04-10T10:30:31.508Z,14.05
2019-04-10T10:33:01.495Z,14.01
2019-04-10T10:35:31.485Z,14.01
2019-04-10T10:38:01.119Z,14.01
2019-04-10T10:40:31.784Z,14.00
2019-04-10T10:43:02.448Z,14.08
2019-04-10T10:45:32.166Z,14.18
2019-04-10T10:48:01.759Z,14.08
2019-04-10T10:50:31.423Z,14.04
2019-04-10T10:53:01.199Z,14.02
2019-04-10T10:55:31.832Z,14.07
2019-04-10T10:58:01.747Z,14.11
2019-04-10T11:00:31.546Z,14.11
2019-04-10T11:03:02.236Z,14.05
2019-04-10T11:05:33.267Z,14.17
2019-04-10T11:08:03.266Z,14.22
2019-04-10T11:10:33.819Z,14.34
2019-04-10T11:13:03.239Z,14.45
2019-04-10T11:15:34.063Z,14.47
2019-04-10T11:18:04.300Z,14.47
2019-04-10T11:20:34.226Z,14.48
2019-04-10T11:23:03.994Z,14.46
2019-04-10T11:25:35.835Z,14.44
2019-04-10T11:28:06.052Z,14.45
2019-04-10T11:30:36.227Z,14.35
2019-04-10T11:33:06.297Z,14.34
2019-04-10T11:35:37.264Z,14.34
2019-04-10T11:38:07.287Z,14.30
2019-04-10T11:40:36.974Z,14.32
2019-04-10T11:43:07.724Z,14.33
2019-04-10T11:48:10.299Z,14.37
2019-04-10T11:50:42.477Z,14.39
2019-04-10T11:53:11.012Z,14.43
2019-04-10T11:55:46.908Z,14.40
2019-04-10T11:58:14.523Z,14.45
2019-04-10T12:00:50.373Z,14.46
2019-04-10T12:03:17.859Z,14.45
2019-04-10T12:05:49.099Z,14.48
2019-04-10T12:11:05.399Z,14.61
2019-04-10T12:13:22.002Z,14.70
2019-04-10T12:15:52.580Z,14.73
2019-04-10T12:18:22.573Z,14.75
2019-04-10T12:20:53.517Z,14.88
2019-04-10T12:23:23.193Z,14.87
2019-04-10T12:25:53.592Z,14.92
2019-04-10T12:28:23.680Z,15.05
2019-04-10T12:30:53.521Z,15.14
2019-04-10T12:33:23.399Z,15.36
2019-04-10T12:35:54.008Z,15.48
2019-04-10T12:38:23.588Z,15.57
2019-04-10T12:40:53.111Z,15.75
2019-04-10T12:43:23.181Z,16.07
2019-04-10T12:45:52.716Z,16.70
2019-04-10T12:48:23.008Z,17.10
2019-04-10T12:50:53.107Z,17.87
2019-04-10T12:53:23.305Z,18.25
2019-04-10T12:55:53.552Z,18.73
2019-04-10T12:58:23.187Z,18.79
2019-04-10T13:00:52.953Z,18.76
2019-04-10T13:03:23.075Z,18.78
2019-04-10T13:05:53.584Z,19.04
2019-04-10T13:08:31.167Z,19.43
2019-04-10T13:10:54.247Z,19.62
2019-04-10T13:13:24.290Z,20.22
2019-04-10T13:15:54.123Z,20.50
2019-04-10T13:18:24.679Z,21.19
2019-04-10T13:20:54.211Z,21.00
2019-04-10T13:23:24.667Z,21.00
2019-04-10T13:25:59.812Z,21.25
2019-04-10T13:28:25.652Z,22.03
2019-04-10T13:30:56.664Z,21.54
2019-04-10T13:33:26.791Z,20.48
2019-04-10T13:35:57.610Z,19.85
2019-04-10T13:38:32.323Z,19.62
2019-04-10T13:40:59.749Z,19.13
2019-04-10T13:43:29.742Z,18.56
2019-04-10T13:45:59.218Z,18.27
2019-04-10T13:48:29.247Z,18.11
2019-04-10T13:50:59.104Z,17.86
2019-04-10T13:53:28.678Z,17.81
2019-04-10T13:55:58.988Z,17.76
2019-04-10T13:58:29.010Z,17.69
2019-04-10T14:00:58.868Z,17.56
2019-04-10T14:03:28.307Z,17.56
2019-04-10T14:05:57.990Z,17.45
2019-04-10T14:08:47.156Z,17.52
2019-04-10T14:11:00.471Z,17.64
2019-04-10T14:13:29.988Z,17.51
2019-04-10T14:16:00.145Z,17.57
2019-04-10T14:18:29.962Z,17.64
2019-04-10T14:20:59.672Z,17.67
2019-04-10T14:23:31.385Z,17.52
2019-04-10T14:26:39.174Z,17.24
2019-04-10T14:29:01.634Z,17.07
2019-04-10T14:31:34.857Z,16.94
2019-04-10T14:34:04.974Z,16.83
2019-04-10T14:36:35.917Z,16.79
2019-04-10T14:39:16.738Z,16.78
2019-04-10T14:41:44.483Z,16.79
2019-04-10T14:44:14.598Z,16.76
2019-04-10T14:46:44.339Z,16.77
2019-04-10T14:49:14.103Z,16.83
2019-04-10T14:51:44.385Z,16.82
2019-04-10T14:54:15.566Z,16.78
2019-04-10T14:56:46.252Z,16.66
2019-04-10T14:59:16.325Z,16.61
2019-04-10T15:01:46.264Z,16.56
2019-04-10T15:04:17.184Z,16.51
2019-04-10T15:06:47.871Z,16.49
2019-04-10T15:09:25.617Z,16.50
2019-04-10T15:11:53.203Z,16.47
2019-04-10T15:14:23.735Z,16.42
2019-04-10T15:16:59.974Z,16.37
2019-04-10T15:19:25.011Z,16.29
2019-04-10T15:21:55.749Z,16.19
2019-04-10T15:24:27.826Z,16.14
2019-04-10T15:26:58.027Z,16.09
2019-04-10T15:29:28.105Z,16.09
2019-04-10T15:31:57.837Z,16.04
2019-04-10T15:34:28.266Z,15.97
2019-04-10T15:36:58.492Z,15.89
2019-04-10T15:39:34.001Z,15.78
2019-04-10T15:41:59.563Z,15.71
2019-04-10T15:44:29.858Z,15.65
2019-04-10T15:47:11.627Z,15.57
2019-04-10T15:49:31.139Z,15.54
2019-04-10T15:52:01.567Z,15.50
2019-04-10T15:54:32.096Z,15.46
2019-04-10T15:57:02.676Z,15.44
2019-04-10T15:59:32.484Z,15.42
2019-04-10T16:02:01.971Z,15.38
2019-04-10T16:04:31.850Z,15.34
2019-04-10T16:07:02.108Z,15.32
2019-04-10T16:09:43.678Z,15.32
2019-04-10T16:12:10.171Z,15.30
2019-04-10T16:14:40.098Z,15.29
2019-04-10T16:17:33.356Z,15.23
2019-04-10T16:20:23.568Z,15.16
2019-04-10T16:23:03.367Z,15.27
2019-04-10T16:25:33.993Z,15.23
2019-04-10T16:28:06.150Z,15.17
2019-04-10T16:30:36.945Z,15.24
2019-04-10T16:33:07.083Z,15.29
2019-04-10T16:35:38.279Z,15.28
2019-04-10T16:38:08.563Z,15.22
2019-04-10T16:40:38.424Z,15.13
2019-04-10T16:43:08.145Z,15.03
2019-04-10T16:45:38.554Z,14.98
2019-04-10T16:48:08.585Z,14.93
2019-04-10T16:50:38.433Z,14.89
2019-04-10T16:53:08.123Z,14.82
2019-04-10T16:55:37.963Z,14.96
2019-04-10T16:58:07.658Z,14.90
2019-04-10T17:00:37.793Z,14.85
2019-04-10T17:03:07.306Z,14.71
2019-04-10T17:05:37.644Z,14.56
2019-04-10T17:08:07.848Z,14.46
2019-04-10T17:10:38.593Z,14.33
2019-04-10T17:13:08.936Z,14.24
2019-04-10T17:15:39.959Z,14.19
2019-04-10T17:18:10.713Z,14.19
2019-04-10T17:20:40.626Z,14.15
2019-04-10T17:23:10.533Z,14.04
2019-04-10T17:25:40.142Z,13.97
2019-04-10T17:28:10.226Z,13.88
2019-04-10T17:30:40.175Z,13.85
2019-04-10T17:33:11.032Z,13.87
2019-04-10T17:35:40.654Z,13.94
2019-04-10T17:38:10.284Z,13.96
2019-04-10T17:40:47.713Z,13.94
2019-04-10T17:43:11.158Z,13.85
2019-04-10T17:45:40.985Z,13.79
2019-04-10T17:48:11.666Z,13.75
2019-04-10T17:50:41.610Z,13.69
2019-04-10T17:53:11.611Z,13.67
2019-04-10T17:55:41.993Z,13.65
2019-04-10T17:58:11.785Z,13.62
2019-04-10T18:00:43.329Z,13.64
2019-04-10T18:03:15.142Z,13.63
2019-04-10T18:05:44.686Z,13.61
2019-04-10T18:08:14.654Z,13.58
2019-04-10T18:10:49.589Z,13.56
2019-04-10T18:13:15.582Z,13.52
2019-04-10T18:15:46.314Z,13.45
2019-04-10T18:18:16.046Z,13.44
2019-04-10T18:20:46.386Z,13.38
2019-04-10T18:23:16.241Z,13.35
2019-04-10T18:25:46.453Z,13.28
2019-04-10T18:28:17.088Z,13.18
2019-04-10T18:30:48.144Z,13.12
2019-04-10T18:33:18.308Z,13.08
2019-04-10T18:35:49.019Z,13.06
2019-04-10T18:38:19.537Z,12.98
2019-04-10T18:40:55.706Z,12.90
2019-04-10T18:43:20.607Z,12.87
2019-04-10T18:46:03.466Z,12.84
2019-04-10T18:48:22.807Z,12.79
2019-04-10T18:50:53.654Z,12.79
2019-04-10T18:53:24.691Z,12.75
2019-04-10T18:55:54.524Z,12.70
2019-04-10T18:58:28.081Z,12.71
2019-04-10T19:01:16.884Z,12.73
2019-04-10T19:04:03.906Z,12.71
2019-04-10T19:06:38.820Z,12.79
2019-04-10T19:09:15.759Z,13.04
2019-04-10T19:11:40.151Z,13.05
2019-04-10T19:14:09.981Z,12.91
2019-04-10T19:16:39.997Z,12.87
2019-04-10T19:19:10.393Z,12.87
2019-04-10T19:21:39.921Z,12.85
2019-04-10T19:24:09.789Z,12.86
2019-04-10T19:26:39.954Z,12.93
2019-04-10T19:29:09.852Z,13.00
2019-04-10T19:31:40.552Z,13.00
2019-04-10T19:34:10.438Z,12.97
2019-04-10T19:36:40.258Z,12.97
2019-04-10T19:39:11.211Z,12.88
2019-04-10T19:41:41.872Z,12.76
2019-04-10T19:44:12.767Z,12.65
2019-04-10T19:46:42.446Z,12.57
2019-04-10T19:49:12.305Z,12.47
2019-04-10T19:51:42.668Z,12.36
2019-04-10T19:54:13.523Z,12.30
2019-04-10T19:56:43.115Z,12.25
2019-04-10T19:59:12.769Z,12.23
2019-04-10T20:01:42.467Z,12.18
2019-04-10T20:04:12.406Z,12.14
2019-04-10T20:06:42.726Z,12.03
2019-04-10T20:09:12.565Z,11.93
2019-04-10T20:11:46.664Z,11.84
2019-04-10T20:14:14.221Z,11.78
2019-04-10T20:16:44.600Z,11.67
2019-04-10T20:19:14.882Z,11.55
2019-04-10T20:21:44.594Z,11.47
2019-04-10T20:24:14.566Z,11.43
2019-04-10T20:26:43.980Z,11.33
2019-04-10T20:29:13.576Z,11.32
2019-04-10T20:31:43.728Z,11.37
2019-04-10T20:34:13.645Z,11.29
2019-04-10T20:36:43.120Z,11.28
2019-04-10T20:39:13.348Z,11.19
2019-04-10T20:41:49.812Z,11.08
2019-04-10T20:44:14.397Z,11.03
2019-04-10T20:46:44.503Z,11.07
2019-04-10T20:49:14.198Z,10.96
2019-04-10T20:51:44.131Z,10.84
2019-04-10T20:54:14.824Z,10.77
2019-04-10T20:56:44.614Z,10.74
2019-04-10T20:59:14.153Z,10.66
2019-04-10T21:01:44.826Z,10.59
2019-04-10T21:04:15.081Z,10.51
2019-04-10T21:06:45.965Z,10.44
2019-04-10T21:09:15.657Z,10.38
2019-04-10T21:11:58.056Z,10.33
2019-04-10T21:14:16.378Z,10.30
2019-04-10T21:16:46.233Z,10.26
2019-04-10T21:19:16.428Z,10.24
2019-04-10T21:21:46.865Z,10.17
2019-04-10T21:24:16.779Z,10.13
2019-04-10T21:26:46.558Z,10.05
2019-04-10T21:29:25.503Z,10.16
2019-04-10T21:32:09.461Z,10.28
2019-04-10T21:34:41.025Z,10.25
2019-04-10T21:37:10.521Z,10.13
2019-04-10T21:39:40.083Z,10.14
2019-04-10T21:42:16.812Z,10.18
2019-04-10T21:44:41.036Z,10.18
2019-04-10T21:47:11.073Z,10.12
2019-04-10T21:49:40.663Z,10.12
2019-04-10T21:52:10.378Z,10.17
2019-04-10T21:54:48.806Z,10.32
2019-04-10T21:57:11.306Z,10.47
2019-04-10T21:59:40.988Z,10.53
2019-04-10T22:02:11.215Z,10.52
2019-04-10T22:04:41.343Z,10.53
2019-04-10T22:07:41.990Z,10.56
2019-04-10T22:10:34.265Z,10.65
2019-04-10T22:13:04.058Z,10.75
2019-04-10T22:15:37.316Z,10.87
2019-04-10T22:18:07.353Z,10.97
2019-04-10T22:20:37.395Z,11.02
2019-04-10T22:23:07.546Z,11.07
2019-04-10T22:25:37.424Z,11.07
2019-04-10T22:28:08.335Z,11.11
2019-04-10T22:30:38.242Z,11.07
2019-04-10T22:33:07.763Z,11.06
2019-04-10T22:35:37.127Z,11.08
2019-04-10T22:38:06.941Z,11.13
2019-04-10T22:40:37.840Z,11.12
2019-04-10T22:43:07.539Z,11.19
2019-04-10T22:45:38.125Z,11.22
2019-04-10T22:48:08.361Z,11.26
2019-04-10T22:50:38.552Z,11.27
2019-04-10T22:53:08.842Z,11.32
2019-04-10T22:55:38.287Z,11.35
2019-04-10T22:58:08.710Z,11.48
2019-04-10T23:00:38.150Z,11.51
2019-04-10T23:03:07.963Z,11.51
2019-04-10T23:05:37.561Z,11.44
2019-04-10T23:08:07.451Z,11.52
2019-04-10T23:10:37.266Z,11.64
2019-04-10T23:13:08.664Z,11.63
2019-04-10T23:15:39.748Z,11.51
2019-04-10T23:18:09.738Z,11.50
2019-04-10T23:20:39.733Z,11.64
2019-04-10T23:23:10.548Z,11.58
2019-04-10T23:25:40.542Z,11.74
2019-04-10T23:28:11.385Z,11.85
2019-04-10T23:30:41.362Z,11.67
2019-04-10T23:33:12.180Z,11.61
2019-04-10T23:35:41.922Z,11.68
2019-04-10T23:38:11.656Z,11.57
2019-04-10T23:40:41.482Z,11.68
2019-04-10T23:43:14.093Z,11.83
2019-04-10T23:45:42.336Z,11.82
2019-04-10T23:48:12.836Z,11.79
2019-04-10T23:50:42.831Z,11.73
2019-04-10T23:53:12.625Z,11.63
2019-04-10T23:55:42.174Z,11.45
2019-04-10T23:58:11.904Z,11.42
